createdAt,value
2022-11-05T00:00:38.009Z,6.87
2022-11-05T00:03:24.312Z,7.33
2022-11-05T00:06:12.384Z,7.53
2022-11-05T00:09:00.542Z,7.37
2022-11-05T00:12:06.609Z,7.93
2022-11-05T00:14:53.123Z,7.93
2022-11-05T00:17:20.994Z,12.83
2022-11-05T00:19:48.615Z,7.97
2022-11-05T00:22:34.695Z,7.00
2022-11-05T00:25:14.366Z,8.43
2022-11-05T00:27:42.763Z,11.10
2022-11-05T00:30:12.161Z,9.47
2022-11-05T00:32:40.274Z,10.40
2022-11-05T00:35:08.696Z,10.33
2022-11-05T00:37:36.409Z,10.10
2022-11-05T00:40:05.209Z,8.37
2022-11-05T00:42:51.452Z,12.47
2022-11-05T00:45:19.373Z,8.77
2022-11-05T00:48:06.065Z,11.80
2022-11-05T00:50:34.142Z,12.70
2022-11-05T00:53:03.545Z,11.50
2022-11-05T00:55:47.209Z,11.67
2022-11-05T00:58:17.322Z,11.10
2022-11-05T01:00:52.688Z,12.47
2022-11-05T01:03:24.182Z,13.27
2022-11-05T01:05:54.536Z,12.80
2022-11-05T01:08:24.414Z,15.60
2022-11-05T01:10:55.452Z,13.90
2022-11-05T01:13:29.100Z,15.13
2022-11-05T01:15:57.345Z,14.63
2022-11-05T01:18:25.419Z,14.70
2022-11-05T01:20:53.114Z,14.63
2022-11-05T01:23:21.255Z,17.13
2022-11-05T01:25:49.150Z,19.77
2022-11-05T01:28:16.792Z,17.33
2022-11-05T01:30:44.450Z,14.73
2022-11-05T01:33:12.266Z,14.00
2022-11-05T01:35:45.589Z,8.37
2022-11-05T01:38:13.186Z,8.83
2022-11-05T01:40:43.188Z,9.30
2022-11-05T01:43:18.208Z,6.03
2022-11-05T01:45:49.454Z,5.53
2022-11-05T01:48:30.217Z,5.13
2022-11-05T01:51:12.003Z,5.90
2022-11-05T01:53:44.559Z,6.27
2022-11-05T01:56:18.777Z,5.63
2022-11-05T01:58:54.329Z,7.27
2022-11-05T02:01:22.472Z,9.40
2022-11-05T02:03:52.908Z,7.33
2022-11-05T02:06:21.479Z,7.03
2022-11-05T02:08:57.056Z,9.03
2022-11-05T02:11:25.133Z,7.77
2022-11-05T02:13:53.270Z,6.63
2022-11-05T02:16:41.484Z,6.00
2022-11-05T02:19:56.610Z,6.33
2022-11-05T02:22:42.969Z,5.80
2022-11-05T02:25:39.703Z,5.57
2022-11-05T02:28:44.531Z,5.80
2022-11-05T02:31:33.233Z,6.10
2022-11-05T02:34:56.570Z,8.39
2022-11-05T02:37:30.046Z,5.37
2022-11-05T02:40:22.101Z,4.97
2022-11-05T02:43:16.045Z,5.43
2022-11-05T02:45:51.360Z,5.20
2022-11-05T02:48:42.001Z,6.10
2022-11-05T02:51:36.403Z,5.53
2022-11-05T02:54:23.566Z,5.77
2022-11-05T02:56:55.553Z,5.90
2022-11-05T02:59:23.192Z,5.50
2022-11-05T03:01:52.573Z,5.63
2022-11-05T03:04:23.360Z,9.80
2022-11-05T03:07:28.292Z,5.37
2022-11-05T03:10:19.377Z,4.37
2022-11-05T03:13:14.354Z,5.73
2022-11-05T03:15:56.780Z,6.70
2022-11-05T03:18:26.420Z,4.33
2022-11-05T03:21:09.491Z,5.27
2022-11-05T03:23:49.417Z,5.60
2022-11-05T03:26:23.246Z,6.60
2022-11-05T03:29:06.596Z,7.20
2022-11-05T03:31:37.270Z,5.70
2022-11-05T03:34:06.840Z,5.30
2022-11-05T03:36:41.169Z,5.57
2022-11-05T03:39:15.924Z,6.00
2022-11-05T03:41:46.806Z,4.30
2022-11-05T03:44:19.579Z,5.37
2022-11-05T03:46:51.679Z,4.13
2022-11-05T03:49:25.229Z,4.63
2022-11-05T03:52:05.652Z,4.17
2022-11-05T03:54:34.048Z,3.90
2022-11-05T03:57:08.719Z,4.27
2022-11-05T03:59:42.270Z,5.90
2022-11-05T04:02:12.281Z,5.07
2022-11-05T04:04:40.114Z,4.60
2022-11-05T04:07:27.907Z,3.97
2022-11-05T04:10:13.985Z,5.83
2022-11-05T04:13:00.514Z,6.03
2022-11-05T04:15:48.613Z,6.13
2022-11-05T04:18:16.171Z,6.20
2022-11-05T04:21:02.190Z,4.60
2022-11-05T04:23:48.596Z,5.93
2022-11-05T04:26:16.369Z,5.53
2022-11-05T04:29:07.879Z,5.80
2022-11-05T04:31:35.698Z,4.97
2022-11-05T04:34:03.786Z,5.80
2022-11-05T04:36:31.761Z,4.80
2022-11-05T04:39:01.760Z,4.70
2022-11-05T04:41:29.345Z,5.57
2022-11-05T04:43:56.928Z,7.80
2022-11-05T04:46:24.646Z,5.63
2022-11-05T04:48:52.729Z,10.17
2022-11-05T04:51:20.326Z,5.83
2022-11-05T04:53:47.877Z,7.07
2022-11-05T04:56:20.926Z,8.63
2022-11-05T04:58:48.566Z,7.90
2022-11-05T05:01:18.500Z,10.13
2022-11-05T05:03:50.754Z,10.80
2022-11-05T05:06:19.007Z,8.77
2022-11-05T05:08:48.561Z,9.43
2022-11-05T05:11:19.438Z,10.90
2022-11-05T05:13:47.615Z,10.03
2022-11-05T05:16:25.434Z,10.03
2022-11-05T05:18:54.022Z,8.90
2022-11-05T05:21:42.104Z,12.37
2022-11-05T05:24:13.801Z,13.13
2022-11-05T05:26:43.896Z,14.63
2022-11-05T05:29:12.180Z,14.67
2022-11-05T05:31:40.031Z,13.00
2022-11-05T05:34:10.523Z,13.90
2022-11-05T05:36:38.223Z,14.40
2022-11-05T05:39:07.091Z,14.77
2022-11-05T05:41:39.854Z,17.83
2022-11-05T05:44:07.580Z,17.50
2022-11-05T05:46:35.191Z,16.47
2022-11-05T05:49:06.587Z,16.30
2022-11-05T05:51:37.278Z,16.43
2022-11-05T05:54:05.137Z,17.70
2022-11-05T05:56:32.735Z,17.90
2022-11-05T05:59:00.493Z,20.10
2022-11-05T06:01:28.129Z,18.57
2022-11-05T06:03:55.988Z,14.53
2022-11-05T06:06:23.621Z,20.60
2022-11-05T06:08:51.268Z,17.57
2022-11-05T06:11:18.857Z,19.53
2022-11-05T06:13:46.439Z,18.77
2022-11-05T06:16:14.223Z,15.37
2022-11-05T06:18:42.032Z,20.17
2022-11-05T06:21:18.060Z,19.80
2022-11-05T06:23:46.329Z,18.23
2022-11-05T06:26:16.885Z,19.07
2022-11-05T06:28:45.287Z,20.93
2022-11-05T06:31:14.305Z,17.57
2022-11-05T06:33:42.164Z,16.70
2022-11-05T06:36:14.410Z,16.83
2022-11-05T06:38:41.980Z,18.40
2022-11-05T06:41:10.748Z,18.87
2022-11-05T06:43:38.675Z,20.47
2022-11-05T06:46:10.357Z,15.00
2022-11-05T06:48:38.538Z,17.60
2022-11-05T06:51:07.801Z,18.97
2022-11-05T06:53:36.277Z,14.93
2022-11-05T06:56:05.260Z,17.50
2022-11-05T06:58:33.385Z,15.13
2022-11-05T07:01:11.421Z,15.57
2022-11-05T07:03:39.411Z,17.67
2022-11-05T07:06:07.713Z,15.00
2022-11-05T07:08:37.366Z,15.73
2022-11-05T07:11:05.117Z,16.67
2022-11-05T07:13:32.762Z,16.87
2022-11-05T07:16:00.417Z,17.20
2022-11-05T07:18:27.979Z,17.93
2022-11-05T07:20:55.540Z,15.67
2022-11-05T07:23:23.131Z,15.93
2022-11-05T07:25:51.016Z,15.23
2022-11-05T07:28:18.590Z,14.47
2022-11-05T07:30:46.322Z,13.57
2022-11-05T07:33:14.428Z,17.17
2022-11-05T07:35:42.209Z,15.87
2022-11-05T07:38:10.694Z,14.83
2022-11-05T07:40:38.380Z,14.63
2022-11-05T07:43:05.946Z,18.03
2022-11-05T07:45:33.688Z,15.13
2022-11-05T07:48:03.798Z,13.17
2022-11-05T07:50:40.356Z,12.60
2022-11-05T07:53:15.310Z,15.10
2022-11-05T07:55:45.857Z,16.40
2022-11-05T07:58:14.239Z,15.73
2022-11-05T08:00:41.948Z,12.80
2022-11-05T08:03:15.005Z,13.70
2022-11-05T08:05:45.871Z,12.67
2022-11-05T08:08:16.151Z,12.40
2022-11-05T08:10:44.020Z,12.43
2022-11-05T08:13:13.137Z,14.37
2022-11-05T08:15:42.275Z,13.80
2022-11-05T08:18:15.795Z,14.30
2022-11-05T08:20:44.855Z,16.07
2022-11-05T08:23:13.000Z,16.33
2022-11-05T08:25:43.932Z,16.70
2022-11-05T08:28:12.916Z,17.80
2022-11-05T08:30:41.155Z,18.07
2022-11-05T08:33:14.388Z,11.33
2022-11-05T08:35:42.374Z,13.20
2022-11-05T08:38:15.834Z,14.33
2022-11-05T08:40:45.234Z,11.67
2022-11-05T08:43:15.495Z,11.50
2022-11-05T08:45:43.118Z,11.00
2022-11-05T08:48:12.834Z,13.33
2022-11-05T08:50:40.764Z,9.53
2022-11-05T08:53:12.029Z,15.70
2022-11-05T08:55:39.993Z,10.90
2022-11-05T08:58:15.291Z,14.43
2022-11-05T09:00:45.707Z,10.93
2022-11-05T09:03:18.078Z,8.13
2022-11-05T09:05:46.082Z,9.10
2022-11-05T09:08:16.155Z,11.47
2022-11-05T09:10:45.577Z,9.77
2022-11-05T09:13:18.844Z,7.27
2022-11-05T09:15:48.645Z,7.13
2022-11-05T09:18:18.144Z,10.00
2022-11-05T09:20:49.058Z,7.13
2022-11-05T09:23:16.892Z,9.87
2022-11-05T09:25:45.214Z,8.97
2022-11-05T09:28:20.179Z,9.43
2022-11-05T09:30:52.789Z,7.33
2022-11-05T09:33:23.940Z,9.07
2022-11-05T09:35:52.707Z,6.77
2022-11-05T09:38:20.323Z,6.07
2022-11-05T09:41:08.639Z,8.67
2022-11-05T09:43:51.688Z,8.73
2022-11-05T09:46:22.296Z,8.07
2022-11-05T09:49:00.619Z,7.33
2022-11-05T09:51:28.381Z,10.80
2022-11-05T09:53:56.417Z,9.87
2022-11-05T09:56:30.684Z,8.47
2022-11-05T09:58:58.313Z,6.03
2022-11-05T10:01:33.478Z,6.60
2022-11-05T10:04:05.960Z,5.63
2022-11-05T10:06:34.507Z,5.23
2022-11-05T10:09:14.785Z,6.13
2022-11-05T10:11:49.707Z,5.67
2022-11-05T10:14:23.438Z,5.33
2022-11-05T10:17:12.821Z,4.77
2022-11-05T10:19:50.667Z,5.43
2022-11-05T10:22:19.595Z,3.73
2022-11-05T10:24:49.700Z,4.50
2022-11-05T10:27:23.260Z,4.90
2022-11-05T10:29:51.495Z,5.13
2022-11-05T10:32:30.133Z,3.53
2022-11-05T10:35:03.615Z,6.23
2022-11-05T10:37:36.956Z,4.13
2022-11-05T10:40:36.449Z,3.80
2022-11-05T10:43:17.294Z,2.97
2022-11-05T10:46:03.559Z,6.23
2022-11-05T10:48:59.631Z,8.30
2022-11-05T10:51:27.472Z,3.30
2022-11-05T10:54:01.868Z,3.03
2022-11-05T10:56:41.451Z,4.80
2022-11-05T10:59:29.812Z,4.57
2022-11-05T11:02:15.100Z,2.73
2022-11-05T11:04:42.800Z,3.83
2022-11-05T11:07:25.584Z,4.80
2022-11-05T11:09:53.646Z,3.67
2022-11-05T11:12:22.488Z,4.83
2022-11-05T11:15:02.329Z,3.53
2022-11-05T11:17:32.292Z,3.10
2022-11-05T11:20:22.104Z,3.83
2022-11-05T11:23:10.621Z,3.60
2022-11-05T11:26:03.846Z,3.43
2022-11-05T11:28:39.881Z,3.70
2022-11-05T11:31:12.792Z,2.87
2022-11-05T11:33:46.466Z,4.87
2022-11-05T11:36:24.973Z,5.10
2022-11-05T11:39:00.020Z,6.27
2022-11-05T11:41:33.453Z,3.07
2022-11-05T11:44:15.802Z,4.17
2022-11-05T11:46:48.727Z,4.30
2022-11-05T11:49:40.131Z,4.32
2022-11-05T11:52:32.189Z,4.57
2022-11-05T11:55:12.042Z,3.72
2022-11-05T11:57:51.074Z,6.25
2022-11-05T12:00:23.295Z,4.57
2022-11-05T12:03:27.955Z,3.90
2022-11-05T12:06:10.866Z,4.45
2022-11-05T12:09:06.965Z,5.27
2022-11-05T12:12:14.272Z,3.53
2022-11-05T12:14:50.858Z,5.63
2022-11-05T12:17:41.901Z,4.17
2022-11-05T12:20:31.008Z,4.33
2022-11-05T12:23:04.453Z,3.83
2022-11-05T12:25:47.075Z,2.23
2022-11-05T12:28:25.224Z,3.57
2022-11-05T12:31:09.184Z,5.60
2022-11-05T12:33:50.904Z,5.73
2022-11-05T12:36:36.342Z,5.00
2022-11-05T12:39:33.766Z,3.70
2022-11-05T12:42:21.075Z,4.53
2022-11-05T12:44:48.612Z,5.00
2022-11-05T12:48:01.153Z,4.33
2022-11-05T12:50:43.972Z,6.87
2022-11-05T12:53:29.823Z,6.17
2022-11-05T12:56:01.533Z,4.73
2022-11-05T12:58:34.755Z,4.93
2022-11-05T13:01:09.692Z,3.28
2022-11-05T13:03:49.916Z,5.00
2022-11-05T13:06:21.600Z,5.40
2022-11-05T13:09:04.315Z,4.57
2022-11-05T13:11:56.237Z,5.00
2022-11-05T13:14:28.343Z,1.93
2022-11-05T13:17:13.539Z,5.00
2022-11-05T13:19:52.724Z,3.53
2022-11-05T13:22:23.454Z,4.00
2022-11-05T13:24:55.071Z,4.57
2022-11-05T13:27:42.968Z,3.85
2022-11-05T13:30:25.878Z,4.05
2022-11-05T13:33:01.998Z,4.70
2022-11-05T13:35:35.546Z,3.83
2022-11-05T13:38:26.778Z,3.45
2022-11-05T13:41:19.605Z,6.10
2022-11-05T13:44:10.648Z,4.27
2022-11-05T13:47:00.016Z,3.93
2022-11-05T13:49:55.547Z,3.60
2022-11-05T13:52:44.779Z,4.53
2022-11-05T13:55:50.363Z,5.73
2022-11-05T13:58:30.168Z,3.43
2022-11-05T14:01:11.911Z,7.03
2022-11-05T14:03:49.836Z,4.80
2022-11-05T14:06:43.900Z,3.60
2022-11-05T14:09:15.942Z,5.83
2022-11-05T14:11:51.344Z,4.50
2022-11-05T14:14:26.111Z,5.97
2022-11-05T14:16:56.639Z,5.23
2022-11-05T14:19:30.385Z,5.17
2022-11-05T14:21:59.216Z,6.10
2022-11-05T14:24:37.337Z,3.57
2022-11-05T14:27:05.084Z,6.90
2022-11-05T14:29:47.174Z,5.10
2022-11-05T14:32:18.580Z,5.77
2022-11-05T14:34:53.443Z,7.00
2022-11-05T14:37:24.453Z,3.43
2022-11-05T14:39:54.087Z,7.50
2022-11-05T14:42:30.772Z,6.73
2022-11-05T14:45:27.473Z,4.67
2022-11-05T14:47:58.091Z,5.13
2022-11-05T14:50:39.221Z,7.57
2022-11-05T14:53:30.586Z,5.63
2022-11-05T14:56:15.004Z,6.27
2022-11-05T14:58:46.368Z,5.40
2022-11-05T15:01:13.968Z,11.70
2022-11-05T15:03:46.369Z,5.80
2022-11-05T15:06:20.531Z,12.27
2022-11-05T15:08:48.120Z,10.20
2022-11-05T15:11:39.386Z,9.20
2022-11-05T15:14:27.324Z,10.70
2022-11-05T15:17:12.160Z,14.10
2022-11-05T15:19:42.563Z,7.13
2022-11-05T15:22:34.080Z,6.67
2022-11-05T15:25:03.811Z,6.53
2022-11-05T15:27:50.122Z,8.27
2022-11-05T15:30:23.310Z,6.33
2022-11-05T15:32:52.135Z,3.87
2022-11-05T15:35:27.741Z,6.13
2022-11-05T15:38:02.130Z,4.23
2022-11-05T15:40:33.246Z,4.23
2022-11-05T15:43:19.612Z,6.10
2022-11-05T15:46:06.927Z,4.77
2022-11-05T15:48:35.981Z,4.33
2022-11-05T15:51:06.247Z,7.63
2022-11-05T15:56:32.840Z,5.63
2022-11-05T15:59:05.924Z,7.10
2022-11-05T16:01:36.980Z,6.80
2022-11-05T16:04:22.421Z,6.57
2022-11-05T16:06:56.030Z,6.07
2022-11-05T16:09:26.663Z,9.13
2022-11-05T16:12:14.247Z,7.60
2022-11-05T16:14:42.354Z,10.77
2022-11-05T16:17:32.222Z,11.53
2022-11-05T16:19:59.930Z,9.17
2022-11-05T16:22:45.877Z,9.70
2022-11-05T16:25:28.954Z,9.80
2022-11-05T16:27:58.273Z,9.43
2022-11-05T16:30:28.317Z,10.73
2022-11-05T16:33:03.819Z,10.33
2022-11-05T16:35:31.599Z,9.40
2022-11-05T16:38:04.360Z,8.97
2022-11-05T16:40:31.974Z,12.83
2022-11-05T16:43:18.516Z,11.07
2022-11-05T16:45:46.842Z,10.63
2022-11-05T16:48:16.892Z,12.93
2022-11-05T16:50:45.497Z,11.43
2022-11-05T16:53:13.568Z,10.00
2022-11-05T16:55:45.745Z,13.67
2022-11-05T16:58:20.789Z,10.93
2022-11-05T17:00:51.111Z,9.43
2022-11-05T17:03:19.341Z,9.27
2022-11-05T17:05:51.919Z,12.20
2022-11-05T17:08:22.116Z,9.00
2022-11-05T17:10:51.359Z,12.30
2022-11-05T17:13:19.975Z,9.37
2022-11-05T17:15:49.718Z,8.93
2022-11-05T17:18:20.882Z,11.67
2022-11-05T17:20:54.580Z,13.07
2022-11-05T17:23:27.817Z,12.30
2022-11-05T17:26:05.606Z,11.40
2022-11-05T17:28:34.057Z,12.00
2022-11-05T17:31:04.192Z,11.30
2022-11-05T17:33:32.257Z,11.40
2022-11-05T17:36:00.163Z,10.57
2022-11-05T17:38:27.740Z,9.80
2022-11-05T17:40:55.310Z,9.17
2022-11-05T17:43:22.954Z,10.27
2022-11-05T17:45:52.455Z,10.80
2022-11-05T17:48:21.417Z,8.60
2022-11-05T17:50:50.464Z,9.90
2022-11-05T17:53:19.145Z,9.87
2022-11-05T17:55:48.221Z,13.43
2022-11-05T17:58:16.179Z,10.67
2022-11-05T18:00:45.563Z,9.40
2022-11-05T18:03:18.644Z,8.23
2022-11-05T18:05:46.410Z,9.50
2022-11-05T18:08:14.368Z,9.73
2022-11-05T18:10:44.384Z,11.17
2022-11-05T18:13:12.360Z,16.13
2022-11-05T18:15:41.248Z,25.50
2022-11-05T18:18:09.552Z,59.03
2022-11-05T18:20:38.168Z,40.53
2022-11-05T18:23:06.085Z,34.10
2022-11-05T18:25:33.786Z,24.70
2022-11-05T18:28:03.959Z,79.27
2022-11-05T18:30:31.543Z,16.07
2022-11-05T18:32:59.324Z,10.07
2022-11-05T18:35:27.473Z,11.83
2022-11-05T18:37:55.059Z,10.33
2022-11-05T18:40:25.542Z,10.73
2022-11-05T18:42:53.486Z,15.40
2022-11-05T18:45:25.518Z,16.20
2022-11-05T18:47:56.153Z,17.23
2022-11-05T18:50:26.511Z,21.43
2022-11-05T18:52:57.146Z,19.17
2022-11-05T18:55:25.056Z,15.30
2022-11-05T18:57:52.880Z,16.73
2022-11-05T19:00:20.827Z,14.77
2022-11-05T19:02:48.533Z,14.10
2022-11-05T19:05:34.223Z,10.50
2022-11-05T19:08:01.843Z,13.37
2022-11-05T19:10:29.593Z,9.63
2022-11-05T19:13:00.935Z,10.20
2022-11-05T19:15:30.868Z,10.77
2022-11-05T19:17:58.620Z,14.00
2022-11-05T19:20:26.200Z,8.60
2022-11-05T19:22:53.767Z,9.70
2022-11-05T19:25:21.322Z,11.63
2022-11-05T19:27:49.160Z,19.07
2022-11-05T19:30:17.478Z,15.47
2022-11-05T19:32:49.047Z,13.77
2022-11-05T19:35:17.429Z,12.80
2022-11-05T19:37:45.284Z,12.23
2022-11-05T19:40:12.996Z,11.43
2022-11-05T19:42:40.663Z,12.93
2022-11-05T19:45:38.286Z,14.17
2022-11-05T19:47:56.800Z,12.87
2022-11-05T19:50:27.147Z,12.13
2022-11-05T19:52:55.160Z,10.33
2022-11-05T19:55:25.061Z,11.47
2022-11-05T19:57:53.069Z,11.60
2022-11-05T20:00:20.846Z,11.73
2022-11-05T20:02:48.743Z,11.90
2022-11-05T20:05:18.316Z,10.40
2022-11-05T20:07:52.716Z,12.00
2022-11-05T20:10:21.185Z,14.67
2022-11-05T20:12:48.864Z,12.10
2022-11-05T20:15:18.982Z,12.30
2022-11-05T20:17:51.701Z,10.23
2022-11-05T20:20:22.466Z,11.53
2022-11-05T20:22:57.737Z,12.63
2022-11-05T20:25:25.340Z,13.50
2022-11-05T20:27:53.025Z,10.10
2022-11-05T20:30:20.770Z,9.07
2022-11-05T20:32:52.622Z,10.17
2022-11-05T20:35:20.326Z,10.73
2022-11-05T20:37:52.815Z,12.17
2022-11-05T20:40:21.758Z,27.83
2022-11-05T20:42:49.333Z,15.77
2022-11-05T20:45:17.119Z,13.10
2022-11-05T20:47:44.788Z,28.37
2022-11-05T20:50:12.532Z,14.00
2022-11-05T20:52:40.403Z,13.70
2022-11-05T20:55:09.185Z,14.90
2022-11-05T20:57:37.354Z,14.00
2022-11-05T21:00:07.229Z,12.03
2022-11-05T21:02:35.518Z,13.30
2022-11-05T21:05:03.534Z,12.80
2022-11-05T21:07:31.173Z,13.03
2022-11-05T21:09:58.849Z,16.53
2022-11-05T21:12:26.421Z,14.30
2022-11-05T21:55:58.982Z,17.87
2022-11-05T21:58:45.579Z,17.27
2022-11-05T22:01:13.205Z,16.60
2022-11-05T22:03:43.912Z,16.07
2022-11-05T22:06:11.630Z,17.63
2022-11-05T22:08:39.206Z,17.63
2022-11-05T22:11:06.754Z,19.07
2022-11-05T22:13:34.329Z,17.77
2022-11-05T22:16:01.916Z,15.83
2022-11-05T22:18:29.549Z,15.87
2022-11-05T22:20:57.116Z,16.33
2022-11-05T22:23:24.679Z,18.53
2022-11-05T22:25:59.830Z,17.27
2022-11-05T22:28:27.495Z,18.43
2022-11-05T22:30:55.084Z,17.03
2022-11-05T22:33:28.366Z,15.83
2022-11-05T22:35:56.197Z,15.23
2022-11-05T22:38:24.015Z,16.70
2022-11-05T22:40:53.747Z,18.73
2022-11-05T22:43:21.337Z,17.80
2022-11-05T22:45:48.980Z,19.30
2022-11-05T22:48:16.638Z,17.97
2022-11-05T22:50:44.245Z,16.57
2022-11-05T22:53:11.823Z,16.60
2022-11-05T22:55:40.059Z,15.80
2022-11-05T22:58:07.756Z,17.67
2022-11-05T23:00:37.159Z,16.63
2022-11-05T23:03:05.249Z,16.30
2022-11-05T23:05:33.032Z,15.13
2022-11-05T23:08:19.468Z,15.33
2022-11-05T23:11:05.477Z,14.17
2022-11-05T23:13:33.039Z,15.67
2022-11-05T23:16:19.296Z,15.00
2022-11-05T23:19:05.845Z,15.07
2022-11-05T23:21:52.079Z,15.20
2022-11-05T23:24:19.668Z,15.07
2022-11-05T23:26:50.228Z,14.50
2022-11-05T23:29:23.496Z,14.67
2022-11-05T23:32:24.378Z,14.37
2022-11-05T23:34:53.087Z,14.00
2022-11-05T23:37:41.084Z,16.40
2022-11-05T23:40:11.481Z,14.90
2022-11-05T23:42:57.765Z,15.47
2022-11-05T23:45:46.431Z,19.63
2022-11-05T23:48:22.919Z,17.30
2022-11-05T23:50:57.386Z,16.53
2022-11-05T23:53:25.921Z,17.17
2022-11-05T23:55:57.776Z,17.53
2022-11-05T23:58:25.365Z,14.87
